Time;durP1;ratioP1;P1;durP2;ratioP2;P2;SDS_P1;SDS_P2;PMS_P1;PMS_P2;Temp;Humidity;BMP_temperature;BMP_pressure;BME280_temperature;BME280_humidity;BME280_pressure;Samples;Min_cycle;Max_cycle;Signal;HPM_P1;HPM_P2
2023/08/28 00:01:07;;;;;;;;;;;19.30;69.50;;;;;;5076235;28;19916;-66
2023/08/28 00:03:32;;;;;;;;;;;19.30;69.50;;;;;;5076147;28;19955;-67
2023/08/28 00:05:58;;;;;;;;;;;19.40;69.50;;;;;;5076106;28;19923;-67
2023/08/28 00:08:24;;;;;;;;;;;19.40;69.60;;;;;;5075727;28;20368;-67
2023/08/28 00:10:51;;;;;;;;;;;19.40;69.50;;;;;;5074587;28;19920;-67
2023/08/28 00:13:17;;;;;;;;;;;19.30;69.50;;;;;;5075967;28;20030;-67
2023/08/28 00:15:42;;;;;;;;;;;19.30;69.40;;;;;;5075950;28;20003;-67
2023/08/28 00:18:08;;;;;;;;;;;19.30;69.40;;;;;;5092779;28;19920;-67
2023/08/28 00:20:33;;;;;;;;;;;19.30;69.40;;;;;;5092446;28;20307;-67
2023/08/28 00:22:59;;;;;;;;;;;19.30;69.40;;;;;;5093552;28;20042;-67
2023/08/28 00:25:24;;;;;;;;;;;19.30;69.40;;;;;;5075556;28;19916;-67
2023/08/28 00:27:49;;;;;;;;;;;19.30;69.40;;;;;;5075574;28;19970;-67
2023/08/28 00:30:15;;;;;;;;;;;19.30;69.40;;;;;;5093378;28;19923;-67
2023/08/28 00:32:40;;;;;;;;;;;19.30;69.40;;;;;;5093393;28;20252;-67
2023/08/28 00:35:06;;;;;;;;;;;19.30;69.40;;;;;;5075420;28;19924;-67
2023/08/28 00:37:32;;;;;;;;;;;19.30;69.50;;;;;;5092386;28;20347;-66
2023/08/28 00:39:57;;;;;;;;;;;19.30;69.40;;;;;;5092042;28;20383;-67
2023/08/28 00:42:23;;;;;;;;;;;19.30;69.40;;;;;;5075472;28;20019;-68
2023/08/28 00:44:48;;;;;;;;;;;19.30;69.40;;;;;;5074268;28;19916;-67
2023/08/28 00:47:14;;;;;;;;;;;19.30;69.40;;;;;;5093306;28;19916;-67
2023/08/28 00:49:40;;;;;;;;;;;19.30;69.50;;;;;;5093150;28;20402;-67
2023/08/28 00:52:05;;;;;;;;;;;19.30;69.50;;;;;;5075066;28;20244;-67
2023/08/28 00:54:31;;;;;;;;;;;19.30;69.50;;;;;;5075069;28;20359;-67
2023/08/28 00:56:57;;;;;;;;;;;19.20;69.40;;;;;;5075167;28;19916;-67
2023/08/28 00:59:23;;;;;;;;;;;19.20;69.40;;;;;;5074870;28;19995;-68
2023/08/28 01:01:48;;;;;;;;;;;19.30;69.40;;;;;;5074832;28;20026;-67
2023/08/28 01:04:14;;;;;;;;;;;19.20;69.40;;;;;;5092022;28;19981;-67
2023/08/28 01:06:45;;;;;;;;;;;19.20;69.40;;;;;;5093014;28;19927;-67
2023/08/28 01:09:15;;;;;;;;;;;19.20;69.40;;;;;;5091848;28;20405;-67
2023/08/28 01:17:03;;;;;;;;;;;19.20;69.30;;;;;;5090073;28;19914;-65
2023/08/28 01:19:33;;;;;;;;;;;19.20;69.40;;;;;;5088645;28;19916;-65
2023/08/28 01:22:07;;;;;;;;;;;19.20;69.40;;;;;;5089010;28;19920;-65
2023/08/28 01:24:33;;;;;;;;;;;19.20;69.30;;;;;;5088867;28;19920;-64
2023/08/28 01:26:58;;;;;;;;;;;19.20;69.30;;;;;;5088863;28;20416;-65
2023/08/28 01:29:26;;;;;;;;;;;19.20;69.30;;;;;;5088926;28;19916;-65
2023/08/28 01:31:51;;;;;;;;;;;19.20;69.30;;;;;;5088740;28;19917;-65
2023/08/28 01:34:17;;;;;;;;;;;19.20;69.40;;;;;;5088439;28;20321;-65
2023/08/28 01:36:46;;;;;;;;;;;19.20;69.30;;;;;;5089485;28;19932;-64
2023/08/28 01:39:17;;;;;;;;;;;19.20;69.30;;;;;;5088716;28;19916;-65
2023/08/28 01:41:45;;;;;;;;;;;19.20;69.30;;;;;;5088252;28;19974;-65
2023/08/28 01:44:10;;;;;;;;;;;19.20;69.30;;;;;;5088248;28;19916;-65
2023/08/28 01:46:36;;;;;;;;;;;19.20;69.30;;;;;;5088448;28;19939;-65
2023/08/28 01:49:02;;;;;;;;;;;19.20;69.30;;;;;;5088418;28;19916;-65
2023/08/28 01:51:28;;;;;;;;;;;19.20;69.30;;;;;;5088101;28;19923;-65
2023/08/28 01:53:53;;;;;;;;;;;19.20;69.20;;;;;;5088376;28;19955;-65
2023/08/28 01:59:01;;;;;;;;;;;19.20;69.30;;;;;;5090035;28;19915;-72
2023/08/28 02:01:26;;;;;;;;;;;19.20;69.20;;;;;;5088693;28;19956;-65
2023/08/28 02:03:52;;;;;;;;;;;19.20;69.20;;;;;;5088829;28;19963;-64
2023/08/28 02:06:17;;;;;;;;;;;19.10;69.10;;;;;;5088602;28;20011;-65
2023/08/28 02:08:43;;;;;;;;;;;19.20;69.20;;;;;;5105614;28;19923;-65
2023/08/28 02:11:09;;;;;;;;;;;19.20;69.20;;;;;;5088455;28;19921;-65
2023/08/28 02:13:35;;;;;;;;;;;19.10;69.10;;;;;;5088841;28;19916;-65
2023/08/28 02:16:01;;;;;;;;;;;19.10;69.10;;;;;;5089743;28;19970;-65
2023/08/28 02:18:26;;;;;;;;;;;19.10;69.10;;;;;;5088548;28;19966;-66
2023/08/28 02:20:52;;;;;;;;;;;19.10;69.10;;;;;;5088385;28;19924;-65
2023/08/28 02:23:17;;;;;;;;;;;19.10;69.10;;;;;;5089677;28;19924;-65
2023/08/28 02:25:44;;;;;;;;;;;19.10;69.10;;;;;;5089574;28;20011;-64
2023/08/28 02:28:10;;;;;;;;;;;19.10;69.10;;;;;;5089463;28;20343;-65
2023/08/28 02:30:35;;;;;;;;;;;19.10;69.10;;;;;;5088183;28;20007;-71
2023/08/28 02:33:00;;;;;;;;;;;19.10;69.10;;;;;;5087998;28;19920;-65
2023/08/28 02:35:26;;;;;;;;;;;19.10;69.10;;;;;;5088405;28;20283;-65
2023/08/28 02:37:51;;;;;;;;;;;19.10;69.10;;;;;;5089376;28;19967;-65
2023/08/28 02:40:17;;;;;;;;;;;19.10;69.10;;;;;;5087988;28;19916;-65
2023/08/28 02:42:42;;;;;;;;;;;19.10;69.10;;;;;;5088192;28;19916;-65
2023/08/28 02:45:08;;;;;;;;;;;19.00;69.10;;;;;;5087931;28;20326;-65
2023/08/28 02:47:33;;;;;;;;;;;19.10;69.10;;;;;;5089093;28;19917;-65
2023/08/28 02:49:59;;;;;;;;;;;19.10;69.10;;;;;;5087676;28;19916;-65
2023/08/28 02:52:25;;;;;;;;;;;19.10;69.10;;;;;;5088993;28;19923;-65
2023/08/28 02:54:50;;;;;;;;;;;19.00;69.00;;;;;;5088981;28;20390;-71
2023/08/28 02:57:15;;;;;;;;;;;19.00;69.00;;;;;;5087393;28;19973;-65
2023/08/28 02:59:41;;;;;;;;;;;19.00;69.00;;;;;;5088850;28;19934;-71
2023/08/28 03:02:06;;;;;;;;;;;19.00;69.00;;;;;;5088776;28;20001;-64
2023/08/28 03:04:34;;;;;;;;;;;19.00;69.00;;;;;;5088017;28;20321;-65
2023/08/28 03:06:59;;;;;;;;;;;19.00;69.00;;;;;;5089021;28;19916;-65
2023/08/28 03:09:25;;;;;;;;;;;19.00;69.00;;;;;;5078792;28;20323;-65
2023/08/28 03:11:51;;;;;;;;;;;19.00;69.00;;;;;;5074142;28;19929;-65
2023/08/28 03:14:16;;;;;;;;;;;19.00;69.00;;;;;;5075106;28;19916;-65
2023/08/28 03:16:42;;;;;;;;;;;19.00;69.00;;;;;;5073735;28;19916;-65
2023/08/28 03:19:07;;;;;;;;;;;19.00;69.00;;;;;;5073728;28;19917;-65
2023/08/28 03:21:33;;;;;;;;;;;19.00;69.00;;;;;;5073911;28;19951;-65
2023/08/28 03:23:59;;;;;;;;;;;19.00;69.00;;;;;;5073912;28;20011;-72
2023/08/28 03:26:25;;;;;;;;;;;19.00;69.00;;;;;;5073664;28;19924;-65
2023/08/28 03:28:51;;;;;;;;;;;19.00;69.00;;;;;;5073845;28;19920;-65
2023/08/28 03:31:16;;;;;;;;;;;19.00;69.00;;;;;;5073551;28;20355;-65
2023/08/28 03:33:42;;;;;;;;;;;19.00;69.00;;;;;;5073455;28;20042;-65
2023/08/28 03:36:07;;;;;;;;;;;18.90;68.90;;;;;;5074612;28;19916;-65
2023/08/28 03:38:33;;;;;;;;;;;19.00;69.00;;;;;;5073365;28;19998;-65
2023/08/28 03:40:58;;;;;;;;;;;18.90;68.90;;;;;;5073581;28;19916;-65
2023/08/28 03:43:23;;;;;;;;;;;19.00;69.00;;;;;;5073368;28;20432;-65
2023/08/28 03:45:49;;;;;;;;;;;19.00;69.70;;;;;;5073452;28;19916;-65
2023/08/28 03:48:14;;;;;;;;;;;18.90;68.90;;;;;;5073187;28;19916;-65
2023/08/28 03:50:40;;;;;;;;;;;19.00;69.00;;;;;;5073087;28;20326;-65
2023/08/28 03:53:05;;;;;;;;;;;18.90;68.90;;;;;;5074360;28;20194;-65
2023/08/28 03:55:31;;;;;;;;;;;18.90;68.90;;;;;;5072982;28;20023;-65
2023/08/28 03:57:57;;;;;;;;;;;19.00;69.00;;;;;;5072801;28;19920;-65
2023/08/28 04:00:23;;;;;;;;;;;18.90;68.90;;;;;;5074134;28;19916;-65
2023/08/28 04:02:50;;;;;;;;;;;18.90;68.90;;;;;;5072930;28;19916;-65
2023/08/28 04:05:16;;;;;;;;;;;19.00;68.90;;;;;;5074142;28;19971;-72
2023/08/28 04:07:43;;;;;;;;;;;18.90;68.90;;;;;;5073003;28;19923;-71
2023/08/28 04:10:09;;;;;;;;;;;18.90;68.80;;;;;;5073390;28;19921;-65
2023/08/28 04:12:34;;;;;;;;;;;18.90;68.90;;;;;;5073000;28;20394;-65
2023/08/28 04:15:00;;;;;;;;;;;18.90;68.80;;;;;;5072641;28;19924;-65
2023/08/28 04:17:25;;;;;;;;;;;18.90;68.80;;;;;;5072594;28;19966;-66
2023/08/28 04:19:51;;;;;;;;;;;18.90;68.80;;;;;;5072691;28;20275;-71
2023/08/28 04:22:17;;;;;;;;;;;18.90;68.80;;;;;;5071725;28;19917;-71
2023/08/28 04:24:44;;;;;;;;;;;18.90;68.80;;;;;;5072778;28;19924;-65
2023/08/28 04:27:09;;;;;;;;;;;18.90;68.80;;;;;;5073753;28;19921;-65
2023/08/28 04:29:35;;;;;;;;;;;18.90;68.80;;;;;;5072643;28;20006;-65
2023/08/28 04:32:00;;;;;;;;;;;18.90;68.80;;;;;;5072291;28;19920;-65
2023/08/28 04:34:26;;;;;;;;;;;18.90;68.80;;;;;;5072268;28;19917;-65
2023/08/28 04:36:51;;;;;;;;;;;18.90;68.80;;;;;;5072840;28;19955;-65
2023/08/28 04:39:17;;;;;;;;;;;18.90;68.80;;;;;;5072391;28;20378;-65
2023/08/28 04:41:43;;;;;;;;;;;18.80;68.70;;;;;;5073569;28;19924;-64
2023/08/28 04:44:10;;;;;;;;;;;18.90;68.80;;;;;;5072396;28;20121;-71
2023/08/28 04:46:35;;;;;;;;;;;18.90;68.80;;;;;;5071951;28;20381;-65
2023/08/28 04:49:01;;;;;;;;;;;18.90;68.80;;;;;;5072313;28;19970;-65
2023/08/28 04:51:26;;;;;;;;;;;18.80;68.70;;;;;;5071887;28;19948;-71
2023/08/28 04:53:52;;;;;;;;;;;18.80;68.70;;;;;;5072148;28;19959;-65
2023/08/28 04:56:17;;;;;;;;;;;18.80;68.70;;;;;;5073178;28;19920;-69
2023/08/28 04:58:43;;;;;;;;;;;18.80;68.70;;;;;;5071532;28;19920;-65
2023/08/28 05:01:08;;;;;;;;;;;18.80;68.70;;;;;;5071856;28;20347;-65
2023/08/28 05:03:34;;;;;;;;;;;18.80;68.70;;;;;;5071618;28;19942;-65
2023/08/28 05:06:00;;;;;;;;;;;18.80;68.70;;;;;;5073020;28;19977;-72
2023/08/28 05:08:28;;;;;;;;;;;18.80;68.60;;;;;;5072780;28;20279;-65
2023/08/28 05:10:53;;;;;;;;;;;18.80;68.60;;;;;;5071633;28;19916;-65
2023/08/28 05:13:19;;;;;;;;;;;18.80;68.60;;;;;;5071855;28;19917;-72
2023/08/28 05:15:44;;;;;;;;;;;18.80;68.70;;;;;;5071545;28;20373;-71
2023/08/28 05:18:11;;;;;;;;;;;18.80;68.60;;;;;;5071477;28;19916;-68
2023/08/28 05:20:37;;;;;;;;;;;18.80;68.70;;;;;;5071494;28;19966;-65
2023/08/28 05:23:03;;;;;;;;;;;18.80;68.60;;;;;;5072679;28;20003;-65
2023/08/28 05:25:30;;;;;;;;;;;18.80;68.60;;;;;;5071733;28;19916;-72
2023/08/28 05:27:56;;;;;;;;;;;18.80;68.60;;;;;;5071204;28;19995;-71
2023/08/28 05:30:21;;;;;;;;;;;18.70;68.50;;;;;;5071676;28;20106;-65
2023/08/28 05:32:47;;;;;;;;;;;18.80;68.60;;;;;;5071033;28;20383;-65
2023/08/28 05:35:12;;;;;;;;;;;18.70;68.50;;;;;;5072589;28;19922;-70
2023/08/28 05:37:38;;;;;;;;;;;18.80;68.60;;;;;;5071254;28;20280;-65
2023/08/28 05:40:04;;;;;;;;;;;18.80;68.60;;;;;;5072352;28;19941;-65
2023/08/28 05:42:30;;;;;;;;;;;18.80;68.60;;;;;;5071561;28;20427;-65
2023/08/28 05:44:56;;;;;;;;;;;18.70;68.50;;;;;;5071074;28;20007;-65
2023/08/28 05:47:21;;;;;;;;;;;18.80;68.50;;;;;;5071500;28;19920;-65
2023/08/28 05:49:47;;;;;;;;;;;18.80;68.60;;;;;;5072423;28;19924;-66
2023/08/28 05:52:12;;;;;;;;;;;18.70;68.50;;;;;;5072436;28;19943;-72
2023/08/28 05:54:38;;;;;;;;;;;18.70;68.50;;;;;;5072269;28;19920;-65
2023/08/28 05:57:04;;;;;;;;;;;18.70;68.50;;;;;;5070999;28;20015;-65
2023/08/28 05:59:29;;;;;;;;;;;18.70;68.50;;;;;;5070880;28;19960;-72
2023/08/28 06:01:55;;;;;;;;;;;18.80;68.50;;;;;;5070977;28;19916;-65
2023/08/28 06:04:20;;;;;;;;;;;18.70;68.40;;;;;;5070899;28;19921;-71
2023/08/28 06:06:46;;;;;;;;;;;18.70;68.50;;;;;;5070297;28;20199;-65
2023/08/28 06:09:11;;;;;;;;;;;18.70;68.40;;;;;;5070208;28;19920;-64
2023/08/28 06:11:37;;;;;;;;;;;18.70;68.40;;;;;;5072059;28;19916;-64
2023/08/28 06:14:02;;;;;;;;;;;18.70;68.50;;;;;;5072346;28;19960;-65
2023/08/28 06:16:28;;;;;;;;;;;18.70;68.40;;;;;;5070814;28;19916;-72
2023/08/28 06:18:53;;;;;;;;;;;18.70;68.50;;;;;;5070694;28;19931;-65
2023/08/28 06:21:18;;;;;;;;;;;18.70;68.40;;;;;;5070380;28;19920;-65
2023/08/28 06:23:44;;;;;;;;;;;18.70;68.50;;;;;;5070741;28;20391;-67
2023/08/28 06:26:09;;;;;;;;;;;18.70;68.40;;;;;;5070605;28;19920;-65
2023/08/28 06:28:35;;;;;;;;;;;18.70;68.50;;;;;;5070666;28;19924;-72
2023/08/28 06:31:02;;;;;;;;;;;18.70;68.40;;;;;;5070898;28;19924;-65
2023/08/28 06:33:27;;;;;;;;;;;18.70;68.40;;;;;;5072060;28;19920;-65
2023/08/28 06:35:53;;;;;;;;;;;18.70;68.40;;;;;;5070536;28;19932;-65
2023/08/28 06:38:19;;;;;;;;;;;18.70;68.40;;;;;;5071842;28;20410;-65
2023/08/28 06:40:52;;;;;;;;;;;18.70;68.50;;;;;;5070476;28;20367;-64
2023/08/28 06:43:17;;;;;;;;;;;18.70;69.20;;;;;;5068152;28;19925;-70
2023/08/28 06:45:44;;;;;;;;;;;18.70;68.40;;;;;;5068109;28;20069;-70
2023/08/28 06:48:09;;;;;;;;;;;18.70;68.40;;;;;;5070363;28;19956;-71
2023/08/28 06:50:35;;;;;;;;;;;18.70;68.40;;;;;;5068898;28;19956;-70
2023/08/28 06:53:00;;;;;;;;;;;18.70;68.40;;;;;;5070592;28;19924;-65
2023/08/28 06:55:26;;;;;;;;;;;18.70;68.40;;;;;;5069084;28;19932;-72
2023/08/28 06:57:51;;;;;;;;;;;18.70;68.40;;;;;;5078369;28;19924;-65
2023/08/28 07:00:17;;;;;;;;;;;18.70;68.40;;;;;;5073778;28;19927;-71
2023/08/28 07:02:42;;;;;;;;;;;18.70;68.40;;;;;;5071658;28;19920;-71
2023/08/28 07:05:08;;;;;;;;;;;18.70;68.40;;;;;;5074790;28;19920;-71
2023/08/28 07:07:33;;;;;;;;;;;18.70;68.40;;;;;;5073290;28;19920;-65
2023/08/28 07:09:59;;;;;;;;;;;18.70;68.40;;;;;;5072844;28;19920;-71
2023/08/28 07:12:24;;;;;;;;;;;18.80;68.40;;;;;;5089908;28;19921;-65
2023/08/28 07:15:05;;;;;;;;;;;18.70;68.40;;;;;;5074973;28;19927;-70
2023/08/28 07:17:30;;;;;;;;;;;18.70;68.40;;;;;;5072484;28;19928;-65
2023/08/28 07:19:56;;;;;;;;;;;18.70;68.30;;;;;;5089172;28;20378;-72
2023/08/28 07:22:21;;;;;;;;;;;18.70;68.30;;;;;;5087735;28;19920;-67
2023/08/28 07:24:47;;;;;;;;;;;18.80;68.40;;;;;;5074846;28;19920;-70
2023/08/28 07:27:12;;;;;;;;;;;18.70;68.30;;;;;;5091053;28;20015;-65
2023/08/28 07:29:38;;;;;;;;;;;18.70;68.30;;;;;;5072851;28;19920;-70
2023/08/28 07:32:03;;;;;;;;;;;18.80;68.30;;;;;;5072688;28;19973;-65
2023/08/28 07:34:31;;;;;;;;;;;18.80;68.30;;;;;;5088603;28;20020;-65
2023/08/28 07:36:56;;;;;;;;;;;18.80;68.40;;;;;;5087406;28;19970;-71
2023/08/28 07:39:22;;;;;;;;;;;18.80;68.40;;;;;;5072094;28;19990;-66
2023/08/28 07:41:47;;;;;;;;;;;18.80;68.30;;;;;;5074591;28;19920;-72
2023/08/28 07:44:13;;;;;;;;;;;18.80;68.40;;;;;;5072245;28;19989;-65
2023/08/28 07:46:38;;;;;;;;;;;18.80;68.40;;;;;;5070995;28;20338;-66
2023/08/28 07:49:04;;;;;;;;;;;18.80;68.40;;;;;;5089130;28;19963;-71
2023/08/28 07:51:29;;;;;;;;;;;18.80;68.40;;;;;;5089750;28;20386;-71
2023/08/28 07:53:55;;;;;;;;;;;18.80;68.30;;;;;;5090222;28;19958;-65
2023/08/28 07:56:21;;;;;;;;;;;18.80;68.30;;;;;;5072167;28;19931;-70
2023/08/28 07:58:46;;;;;;;;;;;18.80;68.30;;;;;;5087642;28;19924;-71
2023/08/28 08:01:12;;;;;;;;;;;18.80;68.30;;;;;;5075950;28;19938;-65
2023/08/28 08:03:37;;;;;;;;;;;18.80;68.30;;;;;;5075910;28;19923;-72
2023/08/28 08:06:03;;;;;;;;;;;18.80;68.30;;;;;;5072116;28;20314;-71
2023/08/28 08:08:28;;;;;;;;;;;18.80;68.30;;;;;;5071256;28;19920;-65
2023/08/28 08:10:54;;;;;;;;;;;18.80;68.40;;;;;;5071478;28;19920;-71
2023/08/28 08:13:20;;;;;;;;;;;18.80;68.30;;;;;;5088128;28;19950;-70
2023/08/28 08:15:45;;;;;;;;;;;18.80;68.30;;;;;;5088510;28;20375;-71
2023/08/28 08:18:11;;;;;;;;;;;18.80;68.30;;;;;;5071270;28;19924;-72
2023/08/28 08:20:36;;;;;;;;;;;18.80;68.30;;;;;;5070930;28;19920;-65
2023/08/28 08:23:02;;;;;;;;;;;18.80;68.30;;;;;;5071257;28;20375;-72
2023/08/28 08:25:28;;;;;;;;;;;18.80;68.30;;;;;;5080452;28;19927;-72
2023/08/28 08:27:53;;;;;;;;;;;18.80;68.30;;;;;;5069235;28;20310;-65
2023/08/28 08:30:19;;;;;;;;;;;18.80;68.30;;;;;;5078135;28;19967;-65
2023/08/28 08:32:45;;;;;;;;;;;18.80;68.30;;;;;;5059035;28;20387;-65
2023/08/28 08:35:12;;;;;;;;;;;18.90;68.30;;;;;;5075408;28;19932;-65
2023/08/28 08:37:37;;;;;;;;;;;18.80;68.30;;;;;;5074310;28;19946;-65
2023/08/28 08:40:03;;;;;;;;;;;18.90;69.00;;;;;;5070821;28;19920;-65
2023/08/28 08:42:28;;;;;;;;;;;18.90;68.30;;;;;;5088310;28;19932;-65
2023/08/28 08:44:54;;;;;;;;;;;18.90;68.30;;;;;;5070523;28;19920;-65
2023/08/28 08:47:20;;;;;;;;;;;18.90;68.30;;;;;;5073113;28;19924;-65
2023/08/28 08:49:51;;;;;;;;;;;18.90;68.30;;;;;;5088501;28;19920;-72
2023/08/28 08:52:18;;;;;;;;;;;18.90;68.20;;;;;;5069713;28;19924;-65
2023/08/28 08:54:43;;;;;;;;;;;18.90;68.20;;;;;;5085238;28;19962;-65
2023/08/28 08:57:13;;;;;;;;;;;18.90;68.30;;;;;;5072407;28;19928;-69
2023/08/28 08:59:39;;;;;;;;;;;18.90;68.20;;;;;;5086786;28;19931;-72
2023/08/28 09:02:05;;;;;;;;;;;18.90;68.30;;;;;;5072628;28;19924;-65
2023/08/28 09:04:32;;;;;;;;;;;18.90;68.30;;;;;;5088083;28;20359;-69
2023/08/28 09:06:58;;;;;;;;;;;18.90;68.20;;;;;;5070155;28;19946;-71
2023/08/28 09:09:23;;;;;;;;;;;18.90;68.20;;;;;;5088594;28;19924;-72
2023/08/28 09:11:49;;;;;;;;;;;18.90;68.20;;;;;;5071659;28;19927;-65
2023/08/28 09:14:14;;;;;;;;;;;18.90;68.20;;;;;;5087184;28;19920;-66
2023/08/28 09:16:40;;;;;;;;;;;18.90;68.20;;;;;;5071439;28;20268;-70
2023/08/28 09:19:06;;;;;;;;;;;18.90;68.20;;;;;;5069152;28;20009;-65
2023/08/28 09:21:34;;;;;;;;;;;18.90;68.20;;;;;;5081193;28;20371;-65
2023/08/28 09:23:59;;;;;;;;;;;18.90;68.20;;;;;;5087562;28;19965;-69
2023/08/28 09:26:25;;;;;;;;;;;19.00;68.20;;;;;;5072665;28;19920;-65
2023/08/28 09:28:59;;;;;;;;;;;19.00;68.20;;;;;;5076472;28;20422;-65
2023/08/28 09:31:28;;;;;;;;;;;19.00;68.20;;;;;;5070112;28;20389;-65
2023/08/28 09:33:54;;;;;;;;;;;19.00;68.00;;;;;;5086010;28;19946;-70
2023/08/28 09:36:19;;;;;;;;;;;19.00;68.00;;;;;;5069575;28;20291;-65
2023/08/28 09:38:45;;;;;;;;;;;19.00;67.80;;;;;;5085284;28;19931;-65
2023/08/28 09:41:10;;;;;;;;;;;19.00;67.70;;;;;;5087950;28;19971;-65
2023/08/28 09:43:36;;;;;;;;;;;19.00;67.60;;;;;;5073039;28;19928;-70
2023/08/28 09:46:03;;;;;;;;;;;19.10;67.70;;;;;;5082872;28;19924;-65
2023/08/28 09:48:30;;;;;;;;;;;19.00;67.70;;;;;;5086022;28;19932;-72
2023/08/28 09:50:56;;;;;;;;;;;19.10;67.70;;;;;;5076374;28;19924;-72
2023/08/28 09:53:21;;;;;;;;;;;19.10;67.70;;;;;;5070500;28;19973;-65
2023/08/28 09:58:28;;;;;;;;;;;19.10;67.60;;;;;;5118852;27;20412;-65
2023/08/28 10:00:55;;;;;;;;;;;19.10;67.70;;;;;;5118718;28;19920;-69
2023/08/28 10:03:22;;;;;;;;;;;19.10;67.70;;;;;;5110443;28;19957;-72
2023/08/28 10:05:48;;;;;;;;;;;19.10;67.80;;;;;;5112737;28;20396;-65
2023/08/28 10:08:14;;;;;;;;;;;19.10;67.70;;;;;;5115424;28;19970;-71
2023/08/28 10:10:41;;;;;;;;;;;19.10;67.70;;;;;;5117751;28;20374;-65
2023/08/28 10:13:10;;;;;;;;;;;19.10;67.50;;;;;;5116749;28;20302;-70
2023/08/28 10:15:39;;;;;;;;;;;19.10;67.40;;;;;;5117859;28;19919;-65
2023/08/28 10:18:08;;;;;;;;;;;19.10;67.50;;;;;;5122896;27;19984;-71
2023/08/28 10:20:34;;;;;;;;;;;19.10;67.50;;;;;;5118146;28;20404;-65
2023/08/28 10:23:01;;;;;;;;;;;19.10;67.40;;;;;;5115801;28;19919;-65
2023/08/28 10:25:28;;;;;;;;;;;19.10;67.40;;;;;;5119039;28;19920;-70
2023/08/28 10:27:54;;;;;;;;;;;19.20;67.40;;;;;;5121547;27;19935;-72
2023/08/28 10:30:21;;;;;;;;;;;19.10;67.30;;;;;;5121004;28;19920;-65
2023/08/28 10:32:47;;;;;;;;;;;19.10;67.40;;;;;;5111349;28;19920;-65
2023/08/28 10:35:12;;;;;;;;;;;19.20;67.40;;;;;;5113692;27;19929;-65
2023/08/28 10:37:39;;;;;;;;;;;19.20;67.40;;;;;;5109578;28;19986;-65
2023/08/28 10:40:05;;;;;;;;;;;19.20;67.30;;;;;;5111323;28;19920;-65
2023/08/28 10:42:31;;;;;;;;;;;19.20;67.30;;;;;;5115616;28;20010;-65
2023/08/28 10:44:57;;;;;;;;;;;19.20;67.30;;;;;;5116445;28;20282;-72
2023/08/28 10:47:22;;;;;;;;;;;19.20;67.30;;;;;;5117029;28;19929;-65
2023/08/28 10:49:48;;;;;;;;;;;19.20;67.30;;;;;;5113234;28;19977;-65
2023/08/28 10:52:18;;;;;;;;;;;19.20;67.20;;;;;;5119811;27;19927;-72
2023/08/28 10:54:43;;;;;;;;;;;19.20;67.20;;;;;;5113309;27;20005;-71
2023/08/28 10:57:25;;;;;;;;;;;19.20;67.20;;;;;;5109982;28;19932;-65
2023/08/28 10:59:50;;;;;;;;;;;19.20;67.30;;;;;;5121567;28;20306;-72
2023/08/28 11:02:16;;;;;;;;;;;19.20;67.20;;;;;;5118767;27;19920;-65
2023/08/28 11:04:41;;;;;;;;;;;19.20;67.20;;;;;;5113010;28;19919;-65
2023/08/28 11:07:30;;;;;;;;;;;19.20;67.20;;;;;;5115004;28;19920;-65
2023/08/28 11:10:16;;;;;;;;;;;19.20;67.20;;;;;;5117375;27;19976;-69
2023/08/28 11:12:48;;;;;;;;;;;19.20;67.20;;;;;;5103420;28;19944;-71
2023/08/28 11:15:23;;;;;;;;;;;19.20;67.20;;;;;;5100173;28;19925;-72
2023/08/28 11:17:49;;;;;;;;;;;19.20;67.20;;;;;;5113908;27;19978;-69
2023/08/28 11:20:19;;;;;;;;;;;19.20;67.20;;;;;;5105551;28;19932;-69
2023/08/28 11:22:45;;;;;;;;;;;19.20;67.20;;;;;;5095528;28;19927;-67
2023/08/28 11:25:12;;;;;;;;;;;19.20;67.30;;;;;;5084047;28;20363;-65
2023/08/28 11:27:46;;;;;;;;;;;19.20;67.30;;;;;;5091014;28;19924;-71
2023/08/28 11:30:13;;;;;;;;;;;19.20;67.30;;;;;;5105557;28;19921;-65
2023/08/28 11:32:40;;;;;;;;;;;19.20;67.30;;;;;;5085983;28;19928;-65
2023/08/28 11:35:08;;;;;;;;;;;19.20;67.30;;;;;;5091439;28;19955;-65
2023/08/28 11:37:35;;;;;;;;;;;19.20;67.30;;;;;;5093673;28;19978;-65
2023/08/28 11:40:05;;;;;;;;;;;19.20;67.30;;;;;;5092864;28;19926;-65
2023/08/28 11:42:30;;;;;;;;;;;19.20;67.30;;;;;;5093019;28;20178;-65
2023/08/28 11:44:56;;;;;;;;;;;19.20;67.30;;;;;;5094391;28;20019;-65
2023/08/28 11:47:23;;;;;;;;;;;19.20;67.30;;;;;;5093639;28;19919;-65
2023/08/28 11:49:48;;;;;;;;;;;19.20;67.30;;;;;;5094487;28;20291;-69
2023/08/28 11:52:16;;;;;;;;;;;19.20;67.30;;;;;;5091973;28;19920;-69
2023/08/28 11:54:42;;;;;;;;;;;19.20;67.30;;;;;;5092364;28;20283;-65
2023/08/28 11:57:08;;;;;;;;;;;19.20;67.30;;;;;;5103417;28;19924;-65
2023/08/28 11:59:34;;;;;;;;;;;19.20;67.30;;;;;;5096649;28;19970;-64
2023/08/28 12:02:00;;;;;;;;;;;19.20;67.30;;;;;;5114701;28;20395;-65
2023/08/28 12:04:25;;;;;;;;;;;19.20;67.30;;;;;;5114551;28;19919;-65
2023/08/28 12:06:51;;;;;;;;;;;19.20;67.30;;;;;;5096248;28;19920;-65
2023/08/28 12:09:17;;;;;;;;;;;19.20;67.30;;;;;;5114275;28;19920;-69
2023/08/28 12:11:42;;;;;;;;;;;19.20;67.30;;;;;;5096499;28;19919;-65
2023/08/28 12:14:15;;;;;;;;;;;19.20;67.30;;;;;;5114423;28;19962;-65
2023/08/28 12:16:41;;;;;;;;;;;19.20;67.30;;;;;;5114385;28;19939;-65
2023/08/28 12:19:07;;;;;;;;;;;19.20;67.30;;;;;;5129984;27;20256;-65
2023/08/28 12:21:34;;;;;;;;;;;19.20;67.30;;;;;;5113275;28;19924;-65
2023/08/28 12:24:00;;;;;;;;;;;19.20;67.30;;;;;;5095873;28;19984;-65
2023/08/28 12:26:25;;;;;;;;;;;19.20;67.30;;;;;;5095944;28;19920;-71
2023/08/28 12:28:52;;;;;;;;;;;19.20;67.30;;;;;;5114124;28;19973;-64
2023/08/28 12:31:33;;;;;;;;;;;19.20;67.30;;;;;;5113422;28;19945;-71
2023/08/28 12:34:05;;;;;;;;;;;19.20;67.30;;;;;;5096295;28;20323;-71
2023/08/28 12:36:34;;;;;;;;;;;19.20;67.30;;;;;;5113690;28;19923;-65
2023/08/28 12:39:00;;;;;;;;;;;19.20;67.30;;;;;;5095613;28;20286;-65
2023/08/28 12:41:25;;;;;;;;;;;19.30;67.40;;;;;;5113390;28;19920;-71
2023/08/28 12:43:51;;;;;;;;;;;19.30;67.40;;;;;;5095267;28;19998;-69
2023/08/28 12:46:16;;;;;;;;;;;19.30;67.40;;;;;;5113715;28;20178;-68
2023/08/28 12:48:43;;;;;;;;;;;19.30;67.30;;;;;;5093884;28;19923;-65
2023/08/28 12:51:09;;;;;;;;;;;19.30;67.40;;;;;;5093147;28;19931;-70
2023/08/28 12:53:34;;;;;;;;;;;19.30;67.30;;;;;;5109454;27;19919;-70
2023/08/28 12:56:00;;;;;;;;;;;19.30;67.40;;;;;;5115757;27;19926;-64
2023/08/28 12:58:25;;;;;;;;;;;19.30;67.40;;;;;;5105435;27;19923;-71
2023/08/28 13:00:51;;;;;;;;;;;19.30;67.40;;;;;;5099186;28;19919;-68
2023/08/28 13:03:16;;;;;;;;;;;19.30;67.40;;;;;;5094941;28;20040;-65
2023/08/28 13:05:42;;;;;;;;;;;19.30;67.30;;;;;;5097991;27;19927;-70
2023/08/28 13:08:08;;;;;;;;;;;19.30;67.30;;;;;;5122633;27;19926;-65
2023/08/28 13:10:35;;;;;;;;;;;19.30;67.30;;;;;;5103705;27;20379;-64
2023/08/28 13:13:00;;;;;;;;;;;19.30;67.30;;;;;;5098982;28;19919;-67
2023/08/28 13:15:26;;;;;;;;;;;19.30;67.30;;;;;;5101908;27;20463;-71
2023/08/28 13:17:51;;;;;;;;;;;19.30;67.40;;;;;;5103526;27;20015;-65
2023/08/28 13:20:17;;;;;;;;;;;19.30;68.10;;;;;;5117219;27;19931;-65
2023/08/28 13:22:43;;;;;;;;;;;19.30;67.30;;;;;;5091812;28;19924;-65
2023/08/28 13:25:08;;;;;;;;;;;19.30;67.30;;;;;;5102183;27;20280;-65
2023/08/28 13:27:35;;;;;;;;;;;19.30;67.30;;;;;;5100897;27;20447;-68
2023/08/28 13:30:00;;;;;;;;;;;19.30;67.30;;;;;;5101566;27;20002;-65
2023/08/28 13:32:26;;;;;;;;;;;19.40;67.30;;;;;;5105378;27;20014;-71
2023/08/28 13:34:51;;;;;;;;;;;19.30;67.20;;;;;;5104287;27;19924;-65
2023/08/28 13:37:17;;;;;;;;;;;19.40;68.00;;;;;;5103327;27;20398;-70
2023/08/28 13:39:42;;;;;;;;;;;19.30;67.20;;;;;;5103477;27;19920;-65
2023/08/28 13:42:08;;;;;;;;;;;19.40;67.30;;;;;;5101418;27;19947;-65
2023/08/28 13:44:35;;;;;;;;;;;19.30;67.20;;;;;;5120758;27;20365;-70
2023/08/28 13:47:01;;;;;;;;;;;19.40;67.30;;;;;;5117039;27;20381;-65
2023/08/28 13:49:27;;;;;;;;;;;19.40;67.30;;;;;;5103386;27;19958;-70
2023/08/28 13:51:53;;;;;;;;;;;19.40;67.20;;;;;;5107088;27;19919;-70
2023/08/28 13:54:18;;;;;;;;;;;19.40;67.20;;;;;;5103069;28;20022;-68
2023/08/28 13:56:44;;;;;;;;;;;19.40;67.20;;;;;;5099542;28;19969;-64
2023/08/28 13:59:09;;;;;;;;;;;19.40;67.20;;;;;;5124066;28;19920;-70
2023/08/28 14:01:35;;;;;;;;;;;19.40;67.20;;;;;;5102060;28;19926;-65
2023/08/28 14:04:00;;;;;;;;;;;19.40;68.00;;;;;;5101214;28;20377;-65
2023/08/28 14:06:27;;;;;;;;;;;19.40;67.10;;;;;;5099085;28;19928;-65
2023/08/28 14:08:52;;;;;;;;;;;19.40;67.20;;;;;;5122304;28;20277;-65
2023/08/28 14:11:18;;;;;;;;;;;19.40;67.90;;;;;;5099688;28;20211;-68
2023/08/28 14:13:43;;;;;;;;;;;19.40;67.20;;;;;;5102974;28;20298;-65
2023/08/28 14:16:09;;;;;;;;;;;19.40;67.20;;;;;;5117204;28;20295;-65
2023/08/28 14:18:34;;;;;;;;;;;19.40;67.20;;;;;;5098461;28;19923;-69
2023/08/28 14:21:00;;;;;;;;;;;19.40;67.20;;;;;;5096547;28;19920;-65